Time;durP1;ratioP1;P1;durP2;ratioP2;P2;SDS_P1;SDS_P2;PMS_P1;PMS_P2;Temp;Humidity;BMP_temperature;BMP_pressure;BME280_temperature;BME280_humidity;BME280_pressure;Samples;Min_cycle;Max_cycle;Signal;HPM_P1;HPM_P2
2022/08/03 00:01:29;;;;;;;0.20;0.20;;;;;;;25.49;40.29;95103.50;5056635;28;20615;-62
2022/08/03 00:03:56;;;;;;;0.10;0.10;;;;;;;25.64;39.89;95100.03;5055516;28;20258;-65
2022/08/03 00:06:23;;;;;;;0.13;0.13;;;;;;;25.58;39.99;95104.13;5046436;28;20207;-67
2022/08/03 00:08:49;;;;;;;0.43;0.43;;;;;;;25.60;39.86;95101.88;5052048;28;20679;-66
2022/08/03 00:11:16;;;;;;;0.20;0.20;;;;;;;25.58;39.63;95101.44;5056623;28;20196;-65
2022/08/03 00:13:43;;;;;;;0.20;0.20;;;;;;;25.47;39.55;95098.47;5056389;28;20975;-66
2022/08/03 00:16:10;;;;;;;0.20;0.20;;;;;;;25.56;39.38;95096.41;5056214;28;20192;-63
2022/08/03 00:18:37;;;;;;;0.37;0.37;;;;;;;25.48;39.11;95093.88;5056244;28;20724;-69
2022/08/03 00:21:04;;;;;;;0.30;0.30;;;;;;;25.47;39.59;95097.69;5056553;28;20192;-65
2022/08/03 00:23:32;;;;;;;0.13;0.13;;;;;;;25.37;40.39;95103.53;5045423;28;20233;-67
2022/08/03 00:26:19;;;;;;;0.30;0.30;;;;;;;25.16;40.14;95094.91;5050272;28;20197;-70
2022/08/03 00:28:47;;;;;;;0.30;0.30;;;;;;;25.45;40.06;95094.56;5048184;28;20196;-66
2022/08/03 00:31:13;;;;;;;0.37;0.37;;;;;;;25.37;39.93;95098.16;5056412;28;20185;-69
2022/08/03 00:33:40;;;;;;;0.23;0.23;;;;;;;25.35;40.41;95095.03;5056471;28;20234;-68
2022/08/03 00:36:27;;;;;;;0.30;0.30;;;;;;;25.09;41.40;95104.31;5041631;28;20220;-65
2022/08/03 00:38:55;;;;;;;0.20;0.20;;;;;;;25.12;40.68;95107.44;5056263;28;20238;-71
2022/08/03 00:41:22;;;;;;;0.30;0.30;;;;;;;25.01;40.66;95102.56;5054845;28;20724;-67
2022/08/03 00:43:49;;;;;;;0.10;0.10;;;;;;;25.00;40.99;95084.91;5055988;28;20217;-66
2022/08/03 00:46:16;;;;;;;0.53;0.53;;;;;;;24.95;41.28;95095.88;5056126;28;20245;-67
2022/08/03 00:48:51;;;;;;;0.20;0.20;;;;;;;25.14;40.53;95099.84;5056395;28;20616;-67
2022/08/03 00:51:19;;;;;;;0.63;0.40;;;;;;;24.86;41.08;95095.25;5041834;28;20201;-67
2022/08/03 00:53:46;;;;;;;0.23;0.23;;;;;;;24.97;40.99;95096.34;5054659;28;20600;-65
2022/08/03 00:56:15;;;;;;;0.23;0.23;;;;;;;25.14;40.19;95091.78;5046019;28;20196;-64
2022/08/03 00:58:45;;;;;;;0.20;0.20;;;;;;;25.12;40.94;95099.41;5055513;28;20262;-69
2022/08/03 01:01:13;;;;;;;0.20;0.20;;;;;;;25.19;40.13;95108.41;5041425;28;20292;-64
2022/08/03 01:03:40;;;;;;;0.20;0.20;;;;;;;24.98;41.66;95103.25;5049714;28;20311;-62
2022/08/03 01:06:17;;;;;;;0.10;0.10;;;;;;;25.12;40.55;95099.41;5044616;28;20255;-63
2022/08/03 01:08:59;;;;;;;0.10;0.10;;;;;;;25.03;40.53;95097.66;5052617;28;20249;-64
2022/08/03 01:11:41;;;;;;;0.20;0.20;;;;;;;24.83;40.33;95085.22;5052714;28;20675;-64
2022/08/03 01:14:44;;;;;;;0.10;0.10;;;;;;;24.75;41.11;95094.16;5042729;28;20219;-67
2022/08/03 01:17:24;;;;;;;0.20;0.20;;;;;;;24.55;41.30;95089.72;5046552;28;20270;-68
2022/08/03 01:20:09;;;;;;;0.10;0.10;;;;;;;24.56;41.42;95088.59;5045065;28;20296;-65
2022/08/03 01:22:44;;;;;;;0.20;0.20;;;;;;;24.40;41.71;95097.66;5052324;28;20291;-64
2022/08/03 01:25:20;;;;;;;1.20;0.30;;;;;;;24.44;41.47;95096.66;5037913;28;20203;-68
2022/08/03 01:28:01;;;;;;;0.20;0.20;;;;;;;24.66;40.84;95087.34;5040556;28;20204;-63
2022/08/03 01:30:34;;;;;;;0.20;0.20;;;;;;;24.30;41.16;95082.84;5038363;28;20197;-64
2022/08/03 01:33:28;;;;;;;0.20;0.20;;;;;;;24.40;41.21;95092.31;5052318;28;20270;-68
2022/08/03 01:36:03;;;;;;;0.20;0.20;;;;;;;24.43;41.01;95097.00;5039955;28;20208;-68
2022/08/03 01:38:57;;;;;;;0.23;0.23;;;;;;;24.25;40.96;95096.44;5052879;28;20204;-69
2022/08/03 01:41:30;;;;;;;0.10;0.10;;;;;;;24.31;41.86;95095.09;5040857;28;20283;-66
2022/08/03 01:43:59;;;;;;;0.73;0.30;;;;;;;24.25;41.90;95101.03;5052180;28;20228;-64
2022/08/03 01:46:48;;;;;;;0.10;0.10;;;;;;;23.92;42.02;95085.06;5041516;28;20200;-65
2022/08/03 01:49:16;;;;;;;0.27;0.27;;;;;;;23.87;41.97;95091.41;5048202;28;20193;-65
2022/08/03 01:51:46;;;;;;;0.30;0.30;;;;;;;24.06;41.40;95090.88;5043097;28;20231;-70
2022/08/03 01:54:35;;;;;;;0.23;0.23;;;;;;;23.84;42.48;95102.78;5051678;28;20196;-67
2022/08/03 01:57:02;;;;;;;0.27;0.17;;;;;;;23.97;42.68;95100.91;5051619;28;20199;-65
2022/08/03 01:59:33;;;;;;;0.27;0.27;;;;;;;24.17;41.95;95094.69;5051859;28;20197;-68
2022/08/03 02:02:01;;;;;;;0.10;0.10;;;;;;;24.17;41.95;95100.03;5037524;28;20213;-64
2022/08/03 02:04:51;;;;;;;0.10;0.10;;;;;;;24.11;41.59;95096.00;5051791;28;20274;-68
2022/08/03 02:07:19;;;;;;;0.30;0.30;;;;;;;24.20;41.28;95096.69;5051252;28;20197;-68
2022/08/03 02:09:50;;;;;;;0.20;0.20;;;;;;;24.41;40.89;95099.22;5050881;28;20792;-64
2022/08/03 02:12:18;;;;;;;0.20;0.20;;;;;;;24.10;41.22;95100.56;5037209;28;20404;-68
2022/08/03 02:14:47;;;;;;;0.20;0.20;;;;;;;24.38;40.89;95089.97;5049701;28;20196;-66
2022/08/03 02:17:15;;;;;;;0.00;0.00;;;;;;;24.35;41.14;95089.84;5050750;28;20215;-65
2022/08/03 02:19:42;;;;;;;0.10;0.10;;;;;;;24.19;42.48;95092.44;5043943;28;20228;-68
2022/08/03 02:22:11;;;;;;;0.10;0.10;;;;;;;24.40;41.10;95093.09;5045127;28;20293;-70
2022/08/03 02:24:39;;;;;;;0.30;0.30;;;;;;;24.20;40.68;95091.31;5051052;28;20219;-69
2022/08/03 02:27:17;;;;;;;0.73;0.47;;;;;;;23.47;42.25;95087.00;5038918;28;20193;-67
2022/08/03 02:29:48;;;;;;;2.37;1.60;;;;;;;23.74;42.05;95081.03;5037159;28;20262;-66
2022/08/03 02:32:19;;;;;;;0.73;0.73;;;;;;;23.68;42.72;95087.72;5051150;28;20204;-66
2022/08/03 02:34:50;;;;;;;0.53;0.53;;;;;;;24.01;41.62;95085.78;5050918;28;20244;-66
2022/08/03 02:37:18;;;;;;;0.27;0.27;;;;;;;24.07;42.33;95093.22;5050719;28;20188;-62
2022/08/03 02:39:47;;;;;;;0.40;0.40;;;;;;;24.13;42.43;95083.06;5050518;28;20254;-66
2022/08/03 02:42:15;;;;;;;0.37;0.37;;;;;;;24.26;42.36;95087.31;5051279;28;20192;-69
2022/08/03 02:44:47;;;;;;;0.43;0.43;;;;;;;24.14;42.18;95090.00;5050418;28;20302;-66
2022/08/03 02:47:15;;;;;;;0.30;0.30;;;;;;;24.16;42.60;95087.75;5049211;28;20194;-62
2022/08/03 02:49:45;;;;;;;0.30;0.30;;;;;;;23.91;42.98;95091.53;5036787;28;20197;-65
2022/08/03 02:52:23;;;;;;;0.67;0.67;;;;;;;23.87;42.92;95085.28;5042252;28;20580;-65
2022/08/03 02:54:54;;;;;;;0.30;0.30;;;;;;;23.92;42.69;95093.84;5042098;28;20221;-63
2022/08/03 02:57:22;;;;;;;0.10;0.10;;;;;;;23.75;43.21;95083.38;5044211;28;20205;-63
2022/08/03 02:59:50;;;;;;;0.20;0.20;;;;;;;23.73;42.75;95087.50;5042598;28;20188;-65
2022/08/03 03:02:18;;;;;;;0.13;0.13;;;;;;;23.79;42.71;95097.66;5032330;28;20263;-65
2022/08/03 03:04:46;;;;;;;0.20;0.20;;;;;;;23.86;43.15;95105.13;5030516;28;20303;-63
2022/08/03 03:07:35;;;;;;;0.10;0.10;;;;;;;23.79;43.05;95111.03;5049172;28;20208;-67
2022/08/03 03:10:21;;;;;;;0.10;0.10;;;;;;;23.80;43.50;95112.59;5050262;28;20200;-65
2022/08/03 03:12:51;;;;;;;0.40;0.40;;;;;;;23.78;43.14;95114.03;5050244;28;20231;-68
2022/08/03 03:15:18;;;;;;;0.30;0.30;;;;;;;23.68;43.31;95111.81;5050402;28;20196;-64
2022/08/03 03:17:47;;;;;;;0.27;0.27;;;;;;;23.90;42.46;95108.72;5043519;28;20201;-67
2022/08/03 03:20:14;;;;;;;0.40;0.40;;;;;;;23.85;43.20;95108.91;5043683;28;20199;-66
2022/08/03 03:22:57;;;;;;;0.50;0.50;;;;;;;23.87;42.75;95128.09;5044979;28;20263;-65
2022/08/03 03:25:26;;;;;;;0.30;0.30;;;;;;;23.73;43.45;95127.63;5042430;28;20262;-64
2022/08/03 03:27:53;;;;;;;0.13;0.13;;;;;;;23.67;43.60;95131.63;5049982;28;20219;-62
2022/08/03 03:30:23;;;;;;;0.10;0.10;;;;;;;23.66;43.49;95132.75;5038827;28;20235;-63
2022/08/03 03:32:51;;;;;;;0.10;0.10;;;;;;;23.79;43.30;95126.31;5048692;28;20200;-66
2022/08/03 03:35:18;;;;;;;0.10;0.10;;;;;;;23.67;43.80;95123.59;5038667;28;20189;-64
2022/08/03 03:37:45;;;;;;;0.40;0.40;;;;;;;23.72;43.25;95131.44;5047498;28;20192;-65
2022/08/03 03:40:13;;;;;;;0.10;0.10;;;;;;;23.55;43.66;95126.25;5049909;28;20295;-63
2022/08/03 03:42:40;;;;;;;0.57;0.57;;;;;;;23.68;43.73;95130.53;5048957;28;20196;-64
2022/08/03 03:45:07;;;;;;;0.10;0.10;;;;;;;23.53;43.95;95123.13;5048376;28;20325;-66
2022/08/03 03:47:34;;;;;;;0.10;0.10;;;;;;;23.64;43.49;95134.97;5049591;28;20196;-65
2022/08/03 03:50:05;;;;;;;0.30;0.30;;;;;;;23.46;44.26;95129.03;5050456;28;20664;-66
2022/08/03 03:52:33;;;;;;;0.30;0.30;;;;;;;23.51;43.96;95136.06;5050284;28;20254;-68
2022/08/03 03:55:00;;;;;;;0.80;0.80;;;;;;;23.49;44.04;95139.06;5049857;28;20230;-64
2022/08/03 03:57:28;;;;;;;0.30;0.30;;;;;;;23.40;44.58;95140.25;5035946;28;20201;-66
2022/08/03 03:59:55;;;;;;;0.40;0.40;;;;;;;23.49;44.18;95138.28;5037557;28;20255;-65
2022/08/03 04:02:22;;;;;;;0.17;0.17;;;;;;;23.60;44.60;95145.56;5042946;28;20218;-62
2022/08/03 04:11:11;;;;;;;0.67;0.67;;;;;;;23.40;45.50;95134.91;5049466;28;20196;-66
2022/08/03 04:14:02;;;;;;;3.10;1.07;;;;;;;23.27;45.37;95141.28;5049378;28;20595;-64
2022/08/03 04:16:36;;;;;;;0.20;0.20;;;;;;;23.57;45.06;95140.09;5035969;28;20203;-66
2022/08/03 04:19:32;;;;;;;0.17;0.17;;;;;;;23.74;44.95;95129.22;5049733;28;20207;-64
2022/08/03 04:22:04;;;;;;;0.20;0.20;;;;;;;23.85;44.63;95135.66;5038285;28;20211;-64
2022/08/03 04:24:40;;;;;;;3.20;1.23;;;;;;;23.85;44.81;95141.03;5035202;28;20235;-64
2022/08/03 04:27:10;;;;;;;0.63;0.30;;;;;;;23.88;44.54;95140.38;5049159;28;20196;-62
2022/08/03 04:29:40;;;;;;;2.70;0.90;;;;;;;24.04;44.71;95133.28;5047481;28;20197;-66
2022/08/03 04:32:14;;;;;;;1.03;0.67;;;;;;;24.05;44.92;95140.19;5038136;28;20714;-66
2022/08/03 04:34:42;;;;;;;1.90;0.67;;;;;;;23.71;45.60;95140.56;5045015;28;20207;-65
2022/08/03 04:37:20;;;;;;;0.37;0.37;;;;;;;24.06;44.81;95147.13;5047250;28;20240;-63
2022/08/03 04:39:49;;;;;;;0.30;0.30;;;;;;;24.04;44.46;95134.06;5036930;28;20246;-61
2022/08/03 04:42:21;;;;;;;0.40;0.40;;;;;;;24.17;44.58;95148.22;5042743;28;20283;-63
2022/08/03 04:44:49;;;;;;;0.20;0.20;;;;;;;23.95;44.31;95119.19;5049915;28;20624;-61
2022/08/03 04:47:16;;;;;;;1.03;0.97;;;;;;;23.93;44.41;95158.88;5053376;28;20277;-62
2022/08/03 04:49:43;;;;;;;0.40;0.40;;;;;;;23.62;45.23;95163.94;5040535;28;20335;-68
2022/08/03 04:52:11;;;;;;;0.57;0.57;;;;;;;23.83;45.70;95164.69;5051976;28;20239;-62
2022/08/03 04:54:42;;;;;;;1.60;1.33;;;;;;;23.88;45.50;95161.78;5052347;28;20246;-62
2022/08/03 04:57:17;;;;;;;1.57;1.27;;;;;;;23.66;46.87;95162.19;5052663;28;20275;-60
2022/08/03 04:59:53;;;;;;;1.00;0.60;;;;;;;24.15;44.94;95165.75;5053069;28;20556;-61
2022/08/03 05:02:29;;;;;;;1.30;1.20;;;;;;;24.36;44.35;95161.84;5038698;28;20324;-62
2022/08/03 05:04:57;;;;;;;0.30;0.30;;;;;;;24.10;44.09;95164.06;5052500;28;20228;-61
2022/08/03 05:07:24;;;;;;;0.40;0.40;;;;;;;23.73;45.48;95155.19;5052990;28;20189;-61
2022/08/03 05:09:51;;;;;;;0.93;0.93;;;;;;;24.25;44.01;95170.66;5052671;28;20281;-61
2022/08/03 05:12:29;;;;;;;0.50;0.50;;;;;;;23.90;44.95;95175.63;5038478;28;20196;-62
2022/08/03 05:14:59;;;;;;;0.40;0.40;;;;;;;23.88;45.56;95181.31;5052505;28;20223;-60
2022/08/03 05:17:27;;;;;;;0.40;0.40;;;;;;;23.90;45.45;95186.31;5051887;28;20219;-63
2022/08/03 05:19:54;;;;;;;3.23;2.90;;;;;;;24.26;44.11;95181.03;5046346;28;20197;-62
2022/08/03 05:22:22;;;;;;;1.27;1.17;;;;;;;24.01;45.04;95182.13;5045028;28;20216;-62
2022/08/03 05:24:49;;;;;;;0.57;0.57;;;;;;;23.97;45.59;95182.00;5052343;28;20228;-62
2022/08/03 05:27:18;;;;;;;0.37;0.37;;;;;;;23.68;46.28;95184.03;5052373;28;20262;-61
2022/08/03 05:29:47;;;;;;;0.40;0.40;;;;;;;24.15;45.49;95193.31;5048759;28;20197;-63
2022/08/03 05:32:14;;;;;;;0.33;0.33;;;;;;;23.40;47.70;95183.84;5041322;28;20197;-62
2022/08/03 05:34:41;;;;;;;0.10;0.10;;;;;;;23.77;46.23;95182.06;5050186;28;20197;-62
2022/08/03 05:37:08;;;;;;;0.37;0.37;;;;;;;24.29;44.94;95199.09;5049911;28;20192;-62
2022/08/03 05:39:35;;;;;;;0.47;0.47;;;;;;;24.56;44.09;95193.09;5050158;28;20211;-62
2022/08/03 05:42:02;;;;;;;0.20;0.20;;;;;;;24.51;44.26;95196.00;5051416;28;20318;-62
2022/08/03 05:44:30;;;;;;;0.37;0.37;;;;;;;24.42;43.59;95198.00;5051242;28;20374;-62
2022/08/03 05:46:58;;;;;;;0.43;0.40;;;;;;;24.40;43.46;95197.56;5047045;28;20201;-63
2022/08/03 05:49:24;;;;;;;0.43;0.43;;;;;;;23.97;44.73;95200.72;5032250;28;20347;-63
2022/08/03 05:51:52;;;;;;;0.40;0.40;;;;;;;24.11;45.68;95197.75;5045836;28;20200;-64
2022/08/03 05:54:36;;;;;;;0.20;0.20;;;;;;;24.63;44.69;95189.84;5039222;28;20197;-63
2022/08/03 05:57:24;;;;;;;1.23;0.80;;;;;;;24.10;45.71;95202.31;5058711;28;20277;-62
2022/08/03 05:59:51;;;;;;;0.30;0.30;;;;;;;24.38;44.84;95202.47;5059688;28;20200;-62
2022/08/03 06:02:23;;;;;;;0.60;0.60;;;;;;;24.80;43.78;95197.66;5060512;28;21140;-62
2022/08/03 06:04:50;;;;;;;0.70;0.70;;;;;;;25.18;43.13;95202.63;5062095;28;20220;-62
2022/08/03 06:07:17;;;;;;;0.30;0.30;;;;;;;25.01;43.60;95198.31;5062447;28;20192;-63
2022/08/03 06:09:44;;;;;;;0.33;0.33;;;;;;;24.72;44.26;95185.97;5051293;28;20196;-62
2022/08/03 06:12:31;;;;;;;0.97;0.97;;;;;;;25.16;42.79;95204.88;5054428;28;20197;-62
2022/08/03 06:14:57;;;;;;;2.33;0.83;;;;;;;25.23;43.35;95205.84;5051277;28;20536;-62
2022/08/03 06:17:24;;;;;;;0.40;0.40;;;;;;;25.70;41.92;95208.72;5044672;28;20190;-62
2022/08/03 06:19:52;;;;;;;0.63;0.63;;;;;;;25.54;41.25;95194.47;5051546;28;20213;-64
2022/08/03 06:22:19;;;;;;;0.53;0.53;;;;;;;25.42;42.05;95191.84;5056405;28;20196;-62
2022/08/03 06:24:46;;;;;;;0.30;0.30;;;;;;;24.86;43.48;95197.13;5062315;28;20243;-62
2022/08/03 06:27:19;;;;;;;0.53;0.53;;;;;;;25.20;42.53;95200.41;5061003;28;20215;-63
2022/08/03 06:30:03;;;;;;;0.30;0.30;;;;;;;25.17;42.38;95201.06;5060979;28;20207;-62
2022/08/03 06:32:29;;;;;;;2.63;0.60;;;;;;;25.85;41.55;95195.34;5060397;28;20223;-62
2022/08/03 06:34:56;;;;;;;3.83;1.50;;;;;;;25.77;41.78;95203.53;5060081;28;20208;-64
2022/08/03 06:37:23;;;;;;;0.23;0.23;;;;;;;25.49;42.29;95205.47;5056656;28;20890;-65
2022/08/03 06:39:50;;;;;;;0.30;0.30;;;;;;;25.65;42.78;95195.56;5051595;28;20273;-64
2022/08/03 06:42:17;;;;;;;0.77;0.77;;;;;;;26.13;42.27;95187.22;5050972;28;20231;-62
2022/08/03 06:44:46;;;;;;;0.30;0.30;;;;;;;26.20;41.95;95184.75;5050721;28;20236;-63
2022/08/03 06:47:13;;;;;;;0.60;0.57;;;;;;;26.63;40.11;95181.94;5050783;28;20736;-63
2022/08/03 06:49:40;;;;;;;0.37;0.37;;;;;;;26.59;40.52;95180.28;5050968;28;20737;-63
2022/08/03 06:52:07;;;;;;;0.57;0.57;;;;;;;26.40;39.65;95189.06;5050728;28;20668;-62
2022/08/03 06:54:35;;;;;;;2.37;0.63;;;;;;;26.61;39.31;95184.19;5051346;28;20275;-63
2022/08/03 06:57:02;;;;;;;1.03;0.93;;;;;;;26.54;38.85;95181.34;5050395;28;20201;-62
2022/08/03 06:59:29;;;;;;;0.30;0.30;;;;;;;26.66;39.04;95178.53;5051158;28;20254;-62
2022/08/03 07:02:18;;;;;;;1.40;0.73;;;;;;;27.12;38.69;95174.19;5032477;28;20189;-62
2022/08/03 07:04:48;;;;;;;0.20;0.20;;;;;;;27.36;38.71;95176.63;5041424;28;20230;-62
2022/08/03 07:07:14;;;;;;;0.23;0.23;;;;;;;27.33;38.67;95165.81;5047696;28;20222;-62
2022/08/03 07:09:41;;;;;;;0.47;0.47;;;;;;;27.29;37.75;95170.31;5039853;28;20239;-62
2022/08/03 07:12:23;;;;;;;0.47;0.47;;;;;;;26.89;40.71;95182.16;5036212;28;20188;-61
2022/08/03 07:14:50;;;;;;;0.40;0.40;;;;;;;27.78;38.62;95176.66;5050382;28;20250;-63
2022/08/03 07:17:16;;;;;;;1.60;0.93;;;;;;;27.60;38.62;95175.56;5048873;28;20678;-63
2022/08/03 07:19:43;;;;;;;0.43;0.43;;;;;;;27.97;37.82;95179.38;5030606;28;20292;-62
2022/08/03 07:22:10;;;;;;;0.60;0.60;;;;;;;27.92;38.65;95179.59;5044557;28;20188;-62
2022/08/03 07:24:37;;;;;;;0.33;0.33;;;;;;;27.53;39.60;95175.44;5050232;28;20222;-63
2022/08/03 07:27:04;;;;;;;0.50;0.50;;;;;;;27.94;38.61;95182.75;5050093;28;20270;-62
2022/08/03 07:29:31;;;;;;;0.37;0.37;;;;;;;28.13;37.38;95188.09;5036160;28;20208;-62
2022/08/03 07:32:00;;;;;;;0.63;0.63;;;;;;;27.78;38.20;95182.84;5040063;28;20371;-62
2022/08/03 07:34:27;;;;;;;0.70;0.70;;;;;;;28.02;37.72;95181.75;5033527;28;20200;-62
2022/08/03 07:36:54;;;;;;;0.30;0.30;;;;;;;28.21;37.99;95184.38;5051304;28;20193;-61
2022/08/03 07:39:21;;;;;;;0.50;0.50;;;;;;;28.43;36.41;95183.59;5051687;28;20200;-61
2022/08/03 07:41:50;;;;;;;1.30;1.20;;;;;;;28.24;37.99;95189.06;5051705;28;20299;-62
2022/08/03 07:44:18;;;;;;;1.70;0.97;;;;;;;28.38;37.12;95183.91;5036302;28;20247;-61
2022/08/03 07:46:45;;;;;;;0.67;0.67;;;;;;;27.60;39.07;95184.41;5036235;28;20655;-62
2022/08/03 07:49:13;;;;;;;0.30;0.30;;;;;;;28.26;36.55;95186.00;5037986;28;20204;-61
2022/08/03 07:51:40;;;;;;;3.60;1.07;;;;;;;27.89;37.75;95188.41;5034445;28;20584;-62
2022/08/03 07:54:08;;;;;;;0.33;0.30;;;;;;;27.95;38.76;95181.63;5050049;28;20609;-62
2022/08/03 07:56:36;;;;;;;0.60;0.60;;;;;;;28.40;36.65;95184.31;5050131;28;20197;-62
2022/08/03 07:59:03;;;;;;;0.60;0.60;;;;;;;28.56;35.16;95184.97;5049882;28;20203;-61
2022/08/03 08:01:35;;;;;;;1.60;0.70;;;;;;;28.85;36.55;95181.56;5050612;28;20204;-60
2022/08/03 08:04:03;;;;;;;0.40;0.40;;;;;;;29.38;34.98;95181.53;5049888;28;20222;-62
2022/08/03 08:06:31;;;;;;;0.17;0.17;;;;;;;29.53;33.76;95184.03;5039149;28;20217;-61
2022/08/03 08:09:01;;;;;;;0.30;0.30;;;;;;;29.46;34.84;95185.84;5046926;28;20189;-62
2022/08/03 08:11:27;;;;;;;1.53;1.43;;;;;;;29.64;34.12;95184.91;5049924;28;20192;-62
2022/08/03 08:13:54;;;;;;;0.73;0.73;;;;;;;29.61;33.81;95195.69;5050797;28;20192;-62
2022/08/03 08:16:21;;;;;;;0.67;0.67;;;;;;;29.10;35.38;95192.72;5041384;28;20243;-61
2022/08/03 08:18:48;;;;;;;2.50;0.43;;;;;;;29.07;33.70;95177.22;5053900;28;20208;-60
2022/08/03 08:21:15;;;;;;;0.53;0.53;;;;;;;29.29;33.63;95176.38;5040029;28;20199;-62
2022/08/03 08:23:42;;;;;;;0.47;0.47;;;;;;;29.51;33.96;95186.31;5053794;28;20219;-61
2022/08/03 08:26:21;;;;;;;0.93;0.63;;;;;;;29.68;33.35;95176.84;5039848;28;20699;-61
2022/08/03 08:28:48;;;;;;;1.23;1.03;;;;;;;29.56;33.97;95182.50;5053716;28;20196;-62
2022/08/03 08:31:15;;;;;;;6.40;0.70;;;;;;;29.71;33.35;95182.31;5053615;28;20582;-61
2022/08/03 08:33:41;;;;;;;0.63;0.63;;;;;;;29.57;32.10;95189.47;5054311;28;20246;-61
2022/08/03 08:36:28;;;;;;;0.50;0.43;;;;;;;29.59;32.49;95179.84;5054026;28;20300;-60
2022/08/03 08:38:55;;;;;;;0.67;0.67;;;;;;;29.80;32.57;95176.63;5055311;28;20203;-61
2022/08/03 08:41:22;;;;;;;0.40;0.40;;;;;;;30.13;31.61;95179.25;5049107;28;20247;-60
2022/08/03 08:43:48;;;;;;;0.20;0.20;;;;;;;29.87;30.63;95177.47;5044365;28;20209;-61
2022/08/03 08:46:18;;;;;;;1.50;0.70;;;;;;;29.92;30.65;95174.44;5053353;28;20236;-62
2022/08/03 08:48:51;;;;;;;1.00;0.90;;;;;;;29.97;30.89;95170.63;5053574;28;20698;-61
2022/08/03 08:51:20;;;;;;;1.60;0.93;;;;;;;30.30;31.29;95170.56;5052161;28;20721;-62
2022/08/03 08:53:51;;;;;;;2.23;0.73;;;;;;;30.30;31.19;95173.28;5053746;28;20193;-62
2022/08/03 08:56:21;;;;;;;0.30;0.30;;;;;;;30.14;30.19;95166.53;5044136;28;20204;-61
2022/08/03 08:58:52;;;;;;;0.53;0.40;;;;;;;30.67;29.84;95157.72;5053237;28;20188;-61
2022/08/03 09:01:19;;;;;;;0.50;0.50;;;;;;;30.69;31.01;95168.91;5053239;28;20205;-61
2022/08/03 09:03:50;;;;;;;0.43;0.37;;;;;;;30.88;29.81;95166.00;5052930;28;20209;-62
2022/08/03 09:06:17;;;;;;;0.37;0.37;;;;;;;30.89;29.50;95158.66;5052995;28;20252;-62
2022/08/03 09:08:44;;;;;;;0.30;0.30;;;;;;;31.13;29.45;95157.25;5052518;28;20613;-61
2022/08/03 09:11:11;;;;;;;0.93;0.63;;;;;;;31.17;29.60;95161.50;5052644;28;20258;-61
2022/08/03 09:13:38;;;;;;;0.67;0.67;;;;;;;30.90;30.82;95157.50;5052683;28;20200;-62
2022/08/03 09:16:22;;;;;;;0.50;0.50;;;;;;;31.26;30.24;95159.22;5052771;28;20193;-62
2022/08/03 09:18:52;;;;;;;0.20;0.20;;;;;;;31.57;30.12;95146.97;5052638;28;20200;-62
2022/08/03 09:21:30;;;;;;;0.30;0.30;;;;;;;31.69;30.01;95149.34;5052951;28;20621;-61
2022/08/03 09:24:01;;;;;;;0.80;0.80;;;;;;;32.09;29.33;95151.78;5052424;28;20192;-62
2022/08/03 09:26:33;;;;;;;0.50;0.50;;;;;;;31.93;28.81;95148.66;5052305;28;20212;-61
2022/08/03 09:29:06;;;;;;;0.63;0.50;;;;;;;31.61;29.17;95150.47;5052258;28;20649;-61
2022/08/03 09:31:42;;;;;;;1.80;0.63;;;;;;;31.51;28.58;95153.94;5040333;28;20235;-62
2022/08/03 09:34:12;;;;;;;0.43;0.43;;;;;;;31.99;28.34;95152.53;5038445;28;20637;-63
2022/08/03 09:36:51;;;;;;;0.30;0.30;;;;;;;31.68;28.64;95147.78;5045305;28;20201;-62
2022/08/03 09:39:23;;;;;;;0.37;0.37;;;;;;;31.68;28.08;95153.19;5045470;28;20188;-62
2022/08/03 09:42:18;;;;;;;0.60;0.60;;;;;;;31.97;29.12;95154.84;5052502;28;20192;-61
2022/08/03 09:44:50;;;;;;;0.50;0.50;;;;;;;31.95;28.62;95154.47;5037764;28;20322;-62
2022/08/03 09:47:33;;;;;;;0.13;0.13;;;;;;;32.27;29.32;95151.78;5052454;28;20201;-62
2022/08/03 09:50:03;;;;;;;0.73;0.47;;;;;;;32.70;28.65;95143.25;5051236;28;20196;-61
2022/08/03 09:52:37;;;;;;;0.40;0.40;;;;;;;32.18;27.14;95145.97;5043976;28;20192;-62
2022/08/03 09:55:23;;;;;;;0.40;0.40;;;;;;;32.40;28.58;95151.03;5051942;28;20211;-60
2022/08/03 09:58:10;;;;;;;0.47;0.47;;;;;;;32.30;27.74;95140.94;5051748;28;20224;-61
2022/08/03 10:00:56;;;;;;;1.07;0.83;;;;;;;32.52;27.71;95137.09;5037662;28;20204;-61
2022/08/03 10:03:25;;;;;;;0.47;0.47;;;;;;;32.83;27.48;95140.16;5051978;28;20295;-62
2022/08/03 10:05:52;;;;;;;0.40;0.40;;;;;;;32.79;26.67;95151.78;5051496;28;20235;-61
2022/08/03 10:08:25;;;;;;;0.27;0.27;;;;;;;32.34;27.59;95139.00;5039203;28;20280;-62
2022/08/03 10:10:57;;;;;;;0.33;0.33;;;;;;;32.80;26.97;95130.84;5050139;28;20211;-63
2022/08/03 10:13:24;;;;;;;1.40;1.23;;;;;;;32.35;28.46;95132.44;5051783;28;20326;-62
2022/08/03 10:15:51;;;;;;;0.50;0.50;;;;;;;32.65;27.11;95140.94;5034095;28;20255;-61
2022/08/03 10:18:37;;;;;;;0.70;0.70;;;;;;;32.63;27.11;95137.84;5044143;28;20282;-62
2022/08/03 10:21:09;;;;;;;0.80;0.70;;;;;;;33.03;26.63;95133.16;5051533;28;20287;-61
2022/08/03 10:23:37;;;;;;;0.47;0.47;;;;;;;32.62;27.92;95135.53;5042851;28;20275;-62
2022/08/03 10:26:06;;;;;;;0.40;0.40;;;;;;;32.99;26.79;95126.94;5035547;28;20646;-62
2022/08/03 10:28:46;;;;;;;0.57;0.57;;;;;;;32.73;27.77;95120.00;5041342;28;20757;-63
2022/08/03 10:31:13;;;;;;;0.40;0.40;;;;;;;33.04;28.65;95118.41;5049368;28;20245;-61
2022/08/03 10:33:48;;;;;;;0.83;0.83;;;;;;;33.43;26.04;95121.75;5051638;28;20253;-62
2022/08/03 10:36:23;;;;;;;0.20;0.20;;;;;;;32.86;26.95;95123.06;5045005;28;20197;-62
2022/08/03 10:38:51;;;;;;;0.30;0.30;;;;;;;33.04;26.42;95129.25;5042490;28;20197;-62
2022/08/03 10:41:20;;;;;;;0.37;0.37;;;;;;;33.61;26.27;95119.75;5048184;28;20278;-61
2022/08/03 10:44:21;;;;;;;0.20;0.20;;;;;;;33.57;26.27;95124.41;5041213;28;20204;-65
2022/08/03 10:46:50;;;;;;;0.73;0.57;;;;;;;33.90;25.82;95112.97;5037784;28;20230;-61
2022/08/03 10:49:18;;;;;;;0.27;0.27;;;;;;;33.94;25.93;95111.00;5051248;28;20252;-62
2022/08/03 10:52:03;;;;;;;0.30;0.30;;;;;;;34.10;26.27;95108.56;5031446;28;20193;-60
2022/08/03 10:57:52;;;;;;;1.03;0.93;;;;;;;34.55;25.77;95102.00;5038389;28;20245;-62
2022/08/03 11:00:26;;;;;;;0.33;0.33;;;;;;;34.45;25.57;95097.41;5049576;28;20196;-62
2022/08/03 11:03:05;;;;;;;0.50;0.50;;;;;;;34.00;26.69;95103.19;5049721;28;20592;-62
2022/08/03 11:05:47;;;;;;;0.50;0.50;;;;;;;34.38;25.75;95097.44;5036698;28;20695;-62
2022/08/03 11:08:35;;;;;;;0.30;0.30;;;;;;;34.52;25.37;95091.13;5050579;28;20654;-61
2022/08/03 11:11:27;;;;;;;0.43;0.43;;;;;;;34.44;25.70;95095.06;5036685;28;20188;-62
2022/08/03 11:14:06;;;;;;;5.10;0.83;;;;;;;34.70;25.27;95092.50;5050410;28;20279;-63
2022/08/03 11:16:35;;;;;;;0.50;0.50;;;;;;;34.77;24.48;95094.38;5050624;28;20643;-62
2022/08/03 11:19:08;;;;;;;0.20;0.20;;;;;;;34.40;25.33;95095.09;5050368;28;20729;-62
2022/08/03 11:21:55;;;;;;;0.30;0.30;;;;;;;34.47;24.82;95078.72;5050285;28;20200;-62
2022/08/03 11:24:50;;;;;;;0.50;0.50;;;;;;;34.09;25.68;95085.25;5046635;28;20193;-61
2022/08/03 11:27:17;;;;;;;0.30;0.30;;;;;;;34.25;24.62;95082.78;5043991;28;20613;-62
2022/08/03 11:29:55;;;;;;;0.53;0.53;;;;;;;34.40;25.69;95084.22;5037246;28;20205;-62
2022/08/03 11:32:42;;;;;;;0.50;0.50;;;;;;;34.54;24.08;95083.34;5051906;28;20192;-62
2022/08/03 11:35:14;;;;;;;0.30;0.30;;;;;;;34.41;25.21;95071.38;5039740;28;20196;-63
2022/08/03 11:37:52;;;;;;;0.50;0.50;;;;;;;34.28;24.59;95064.88;5050360;28;20664;-62
2022/08/03 11:40:43;;;;;;;0.50;0.50;;;;;;;34.76;25.43;95057.44;5050551;28;20192;-62
2022/08/03 11:43:32;;;;;;;0.30;0.30;;;;;;;34.73;25.42;95059.03;5050647;28;20296;-62
2022/08/03 11:46:16;;;;;;;0.50;0.50;;;;;;;34.61;25.96;95062.28;5049682;28;20232;-62
2022/08/03 11:49:04;;;;;;;0.60;0.60;;;;;;;34.87;25.10;95062.78;5039887;28;20200;-62
2022/08/03 11:51:37;;;;;;;0.40;0.40;;;;;;;34.60;25.16;95070.81;5049970;28;20204;-61
2022/08/03 11:54:05;;;;;;;0.37;0.37;;;;;;;34.68;24.99;95056.75;5049996;28;20204;-62
2022/08/03 11:56:47;;;;;;;0.30;0.30;;;;;;;34.96;24.77;95065.81;5050019;28;20219;-61
2022/08/03 11:59:16;;;;;;;0.30;0.30;;;;;;;34.73;24.85;95053.56;5036979;28;20192;-61
2022/08/03 12:01:49;;;;;;;0.27;0.27;;;;;;;34.52;25.10;95064.69;5050179;28;20228;-63
2022/08/03 12:04:15;;;;;;;0.60;0.60;;;;;;;34.71;25.62;95052.44;5036727;28;20192;-62
2022/08/03 12:06:58;;;;;;;0.70;0.50;;;;;;;35.27;24.16;95048.28;5049836;28;20296;-62